sensor_id;sensor_type;location;lat;lon;timestamp;pressure;altitude;pressure_sealevel;temperature
48894;BMP280;34710;35.798;139.446;2023-02-23T00:01:27;101237.43;;;8.64
48894;BMP280;34710;35.798;139.446;2023-02-23T00:03:58;101225.06;;;8.34
48894;BMP280;34710;35.798;139.446;2023-02-23T00:06:28;101226.44;;;8.70
48894;BMP280;34710;35.798;139.446;2023-02-23T00:08:58;101222.99;;;9.08
48894;BMP280;34710;35.798;139.446;2023-02-23T00:11:28;101227.73;;;8.73
48894;BMP280;34710;35.798;139.446;2023-02-23T00:13:57;101233.31;;;8.75
48894;BMP280;34710;35.798;139.446;2023-02-23T00:16:26;101232.70;;;8.60
48894;BMP280;34710;35.798;139.446;2023-02-23T00:18:57;101220.71;;;8.82
48894;BMP280;34710;35.798;139.446;2023-02-23T00:21:29;101217.57;;;9.21
48894;BMP280;34710;35.798;139.446;2023-02-23T00:24:00;101224.49;;;9.52
48894;BMP280;34710;35.798;139.446;2023-02-23T00:26:32;101204.85;;;9.57
48894;BMP280;34710;35.798;139.446;2023-02-23T00:29:03;101202.71;;;9.89
48894;BMP280;34710;35.798;139.446;2023-02-23T00:31:33;101195.81;;;10.06
48894;BMP280;34710;35.798;139.446;2023-02-23T00:34:04;101175.92;;;9.73
48894;BMP280;34710;35.798;139.446;2023-02-23T00:36:35;101177.20;;;10.58
48894;BMP280;34710;35.798;139.446;2023-02-23T00:39:06;101178.57;;;10.26
48894;BMP280;34710;35.798;139.446;2023-02-23T00:41:35;101180.30;;;10.25
48894;BMP280;34710;35.798;139.446;2023-02-23T00:44:05;101180.79;;;9.73
48894;BMP280;34710;35.798;139.446;2023-02-23T00:46:33;101191.09;;;10.11
48894;BMP280;34710;35.798;139.446;2023-02-23T00:49:03;101199.91;;;7.91
48894;BMP280;34710;35.798;139.446;2023-02-23T00:51:32;101192.73;;;8.40
48894;BMP280;34710;35.798;139.446;2023-02-23T00:54:01;101184.44;;;8.93
48894;BMP280;34710;35.798;139.446;2023-02-23T00:56:31;101180.35;;;9.75
48894;BMP280;34710;35.798;139.446;2023-02-23T00:59:00;101173.31;;;9.08
48894;BMP280;34710;35.798;139.446;2023-02-23T01:01:30;101175.22;;;9.70
48894;BMP280;34710;35.798;139.446;2023-02-23T01:03:59;101170.46;;;9.48
48894;BMP280;34710;35.798;139.446;2023-02-23T01:06:29;101160.83;;;9.90
48894;BMP280;34710;35.798;139.446;2023-02-23T01:08:58;101155.19;;;9.81
48894;BMP280;34710;35.798;139.446;2023-02-23T01:11:28;101158.64;;;10.03
48894;BMP280;34710;35.798;139.446;2023-02-23T01:13:58;101155.74;;;10.23
48894;BMP280;34710;35.798;139.446;2023-02-23T01:16:30;101161.77;;;7.80
48894;BMP280;34710;35.798;139.446;2023-02-23T01:19:02;101153.09;;;9.41
48894;BMP280;34710;35.798;139.446;2023-02-23T01:21:34;101156.82;;;10.44
48894;BMP280;34710;35.798;139.446;2023-02-23T01:24:05;101146.10;;;10.95
48894;BMP280;34710;35.798;139.446;2023-02-23T01:26:37;101140.50;;;11.52
48894;BMP280;34710;35.798;139.446;2023-02-23T01:29:09;101126.45;;;11.44
48894;BMP280;34710;35.798;139.446;2023-02-23T01:31:41;101113.91;;;13.81
48894;BMP280;34710;35.798;139.446;2023-02-23T01:34:12;101112.30;;;16.04
48894;BMP280;34710;35.798;139.446;2023-02-23T01:36:43;101107.88;;;15.68
48894;BMP280;34710;35.798;139.446;2023-02-23T01:39:14;101100.06;;;17.02
48894;BMP280;34710;35.798;139.446;2023-02-23T01:41:45;101083.47;;;18.40
48894;BMP280;34710;35.798;139.446;2023-02-23T01:45:25;101078.35;;;16.62
48894;BMP280;34710;35.798;139.446;2023-02-23T01:47:57;101062.21;;;14.71
48894;BMP280;34710;35.798;139.446;2023-02-23T01:50:37;101056.44;;;16.45
48894;BMP280;34710;35.798;139.446;2023-02-23T01:53:07;101056.95;;;16.58
48894;BMP280;34710;35.798;139.446;2023-02-23T01:55:37;101049.66;;;15.98
48894;BMP280;34710;35.798;139.446;2023-02-23T01:58:11;101045.43;;;17.48
48894;BMP280;34710;35.798;139.446;2023-02-23T02:00:45;101044.37;;;16.76
48894;BMP280;34710;35.798;139.446;2023-02-23T02:03:22;101038.14;;;16.39
48894;BMP280;34710;35.798;139.446;2023-02-23T02:05:53;101023.99;;;14.35
48894;BMP280;34710;35.798;139.446;2023-02-23T02:08:24;101020.31;;;15.55
48894;BMP280;34710;35.798;139.446;2023-02-23T02:10:54;101021.18;;;16.21
48894;BMP280;34710;35.798;139.446;2023-02-23T02:13:27;101021.00;;;13.24
48894;BMP280;34710;35.798;139.446;2023-02-23T02:16:11;101016.58;;;12.75
48894;BMP280;34710;35.798;139.446;2023-02-23T02:18:55;101004.74;;;14.07
48894;BMP280;34710;35.798;139.446;2023-02-23T02:22:00;101001.74;;;16.49
48894;BMP280;34710;35.798;139.446;2023-02-23T02:25:46;100993.66;;;15.34
48894;BMP280;34710;35.798;139.446;2023-02-23T02:28:41;100985.42;;;18.77
48894;BMP280;34710;35.798;139.446;2023-02-23T02:32:39;100970.70;;;19.66
48894;BMP280;34710;35.798;139.446;2023-02-23T02:35:33;100961.55;;;17.96
48894;BMP280;34710;35.798;139.446;2023-02-23T02:38:12;100956.05;;;19.49
48894;BMP280;34710;35.798;139.446;2023-02-23T02:40:47;100951.43;;;20.07
48894;BMP280;34710;35.798;139.446;2023-02-23T02:43:27;100947.62;;;20.81
48894;BMP280;34710;35.798;139.446;2023-02-23T02:46:06;100953.00;;;18.33
48894;BMP280;34710;35.798;139.446;2023-02-23T02:48:46;100943.31;;;19.28
48894;BMP280;34710;35.798;139.446;2023-02-23T02:51:23;100939.78;;;20.30
48894;BMP280;34710;35.798;139.446;2023-02-23T02:53:58;100935.54;;;21.35
48894;BMP280;34710;35.798;139.446;2023-02-23T02:56:31;100922.29;;;21.75
48894;BMP280;34710;35.798;139.446;2023-02-23T02:59:03;100922.73;;;16.88
48894;BMP280;34710;35.798;139.446;2023-02-23T03:01:32;100918.76;;;19.85
48894;BMP280;34710;35.798;139.446;2023-02-23T03:04:17;100904.82;;;19.30
48894;BMP280;34710;35.798;139.446;2023-02-23T03:06:51;100894.89;;;17.53
48894;BMP280;34710;35.798;139.446;2023-02-23T03:09:29;100883.59;;;18.21
48894;BMP280;34710;35.798;139.446;2023-02-23T03:12:09;100886.67;;;18.73
48894;BMP280;34710;35.798;139.446;2023-02-23T03:14:46;100882.94;;;17.22
48894;BMP280;34710;35.798;139.446;2023-02-23T03:17:23;100884.78;;;15.18
48894;BMP280;34710;35.798;139.446;2023-02-23T03:20:02;100872.78;;;17.11
48894;BMP280;34710;35.798;139.446;2023-02-23T03:22:38;100864.18;;;18.30
48894;BMP280;34710;35.798;139.446;2023-02-23T03:25:15;100864.33;;;19.21
48894;BMP280;34710;35.798;139.446;2023-02-23T03:27:51;100854.65;;;19.90
48894;BMP280;34710;35.798;139.446;2023-02-23T03:30:25;100855.16;;;20.16
48894;BMP280;34710;35.798;139.446;2023-02-23T03:33:02;100847.48;;;20.19
48894;BMP280;34710;35.798;139.446;2023-02-23T03:35:41;100844.70;;;20.62
48894;BMP280;34710;35.798;139.446;2023-02-23T03:38:17;100838.52;;;20.96
48894;BMP280;34710;35.798;139.446;2023-02-23T03:40:49;100831.35;;;21.22
48894;BMP280;34710;35.798;139.446;2023-02-23T03:43:22;100829.26;;;21.91
48894;BMP280;34710;35.798;139.446;2023-02-23T03:45:55;100821.57;;;22.47
48894;BMP280;34710;35.798;139.446;2023-02-23T03:48:26;100816.36;;;22.91
48894;BMP280;34710;35.798;139.446;2023-02-23T03:50:58;100807.26;;;23.47
48894;BMP280;34710;35.798;139.446;2023-02-23T03:53:34;100803.96;;;23.88
48894;BMP280;34710;35.798;139.446;2023-02-23T03:56:09;100805.34;;;24.14
48894;BMP280;34710;35.798;139.446;2023-02-23T03:58:43;100801.75;;;24.12
48894;BMP280;34710;35.798;139.446;2023-02-23T04:01:16;100799.98;;;24.23
48894;BMP280;34710;35.798;139.446;2023-02-23T04:03:47;100790.61;;;24.26
48894;BMP280;34710;35.798;139.446;2023-02-23T04:06:19;100791.42;;;24.26
48894;BMP280;34710;35.798;139.446;2023-02-23T04:08:52;100785.74;;;24.05
48894;BMP280;34710;35.798;139.446;2023-02-23T04:11:29;100776.99;;;22.50
48894;BMP280;34710;35.798;139.446;2023-02-23T04:14:02;100776.56;;;22.95
48894;BMP280;34710;35.798;139.446;2023-02-23T04:16:33;100776.70;;;22.17
48894;BMP280;34710;35.798;139.446;2023-02-23T04:19:02;100773.28;;;22.09
48894;BMP280;34710;35.798;139.446;2023-02-23T04:21:31;100774.38;;;20.14
48894;BMP280;34710;35.798;139.446;2023-02-23T04:24:01;100771.86;;;19.06
48894;BMP280;34710;35.798;139.446;2023-02-23T04:26:30;100762.80;;;16.73
48894;BMP280;34710;35.798;139.446;2023-02-23T04:28:59;100762.16;;;17.96
48894;BMP280;34710;35.798;139.446;2023-02-23T04:31:29;100757.98;;;19.51
48894;BMP280;34710;35.798;139.446;2023-02-23T04:33:58;100753.68;;;20.01
48894;BMP280;34710;35.798;139.446;2023-02-23T04:36:27;100748.18;;;20.97
48894;BMP280;34710;35.798;139.446;2023-02-23T04:38:56;100745.93;;;21.44
48894;BMP280;34710;35.798;139.446;2023-02-23T04:41:25;100739.50;;;20.99
48894;BMP280;34710;35.798;139.446;2023-02-23T04:43:55;100739.06;;;22.06
48894;BMP280;34710;35.798;139.446;2023-02-23T04:46:25;100739.74;;;22.24
48894;BMP280;34710;35.798;139.446;2023-02-23T04:48:54;100734.38;;;22.57
48894;BMP280;34710;35.798;139.446;2023-02-23T04:51:24;100736.62;;;23.14
48894;BMP280;34710;35.798;139.446;2023-02-23T04:53:53;100730.99;;;23.17
48894;BMP280;34710;35.798;139.446;2023-02-23T04:56:23;100723.23;;;23.38
48894;BMP280;34710;35.798;139.446;2023-02-23T04:58:52;100716.77;;;23.83
48894;BMP280;34710;35.798;139.446;2023-02-23T05:01:22;100713.64;;;23.89
48894;BMP280;34710;35.798;139.446;2023-02-23T05:03:51;100708.34;;;23.74
48894;BMP280;34710;35.798;139.446;2023-02-23T05:06:21;100704.46;;;23.86
48894;BMP280;34710;35.798;139.446;2023-02-23T05:08:50;100705.11;;;23.44
48894;BMP280;34710;35.798;139.446;2023-02-23T05:11:20;100700.52;;;23.28
48894;BMP280;34710;35.798;139.446;2023-02-23T05:13:49;100704.38;;;23.55
48894;BMP280;34710;35.798;139.446;2023-02-23T05:16:18;100707.56;;;24.03
48894;BMP280;34710;35.798;139.446;2023-02-23T05:18:48;100703.92;;;23.84
48894;BMP280;34710;35.798;139.446;2023-02-23T05:21:17;100699.18;;;24.09
48894;BMP280;34710;35.798;139.446;2023-02-23T05:23:46;100696.33;;;23.97
48894;BMP280;34710;35.798;139.446;2023-02-23T05:26:16;100693.26;;;24.34
48894;BMP280;34710;35.798;139.446;2023-02-23T05:28:45;100688.36;;;24.62
48894;BMP280;34710;35.798;139.446;2023-02-23T05:31:15;100685.61;;;24.63
48894;BMP280;34710;35.798;139.446;2023-02-23T05:33:44;100688.28;;;24.61
48894;BMP280;34710;35.798;139.446;2023-02-23T05:36:15;100690.61;;;24.48
48894;BMP280;34710;35.798;139.446;2023-02-23T05:38:45;100684.08;;;24.27
48894;BMP280;34710;35.798;139.446;2023-02-23T05:41:16;100684.33;;;24.59
48894;BMP280;34710;35.798;139.446;2023-02-23T05:43:46;100688.29;;;24.73
48894;BMP280;34710;35.798;139.446;2023-02-23T05:46:18;100683.90;;;24.14
48894;BMP280;34710;35.798;139.446;2023-02-23T05:48:47;100682.76;;;24.21
48894;BMP280;34710;35.798;139.446;2023-02-23T05:51:17;100675.06;;;24.32
48894;BMP280;34710;35.798;139.446;2023-02-23T05:53:47;100672.03;;;23.77
48894;BMP280;34710;35.798;139.446;2023-02-23T05:56:17;100670.86;;;24.28
48894;BMP280;34710;35.798;139.446;2023-02-23T05:58:46;100667.82;;;24.33
48894;BMP280;34710;35.798;139.446;2023-02-23T06:01:17;100659.07;;;24.03
48894;BMP280;34710;35.798;139.446;2023-02-23T06:03:47;100656.70;;;24.22
48894;BMP280;34710;35.798;139.446;2023-02-23T06:06:17;100657.87;;;24.39
48894;BMP280;34710;35.798;139.446;2023-02-23T06:08:47;100657.97;;;24.01
48894;BMP280;34710;35.798;139.446;2023-02-23T06:11:17;100657.05;;;24.04
48894;BMP280;34710;35.798;139.446;2023-02-23T06:13:46;100653.48;;;23.58
48894;BMP280;34710;35.798;139.446;2023-02-23T06:16:15;100649.28;;;23.56
48894;BMP280;34710;35.798;139.446;2023-02-23T06:18:44;100651.49;;;23.40
48894;BMP280;34710;35.798;139.446;2023-02-23T06:21:14;100645.10;;;23.79
48894;BMP280;34710;35.798;139.446;2023-02-23T06:23:44;100639.38;;;24.10
48894;BMP280;34710;35.798;139.446;2023-02-23T06:26:13;100639.29;;;23.98
48894;BMP280;34710;35.798;139.446;2023-02-23T06:28:43;100635.57;;;24.29
48894;BMP280;34710;35.798;139.446;2023-02-23T06:31:12;100629.04;;;24.00
48894;BMP280;34710;35.798;139.446;2023-02-23T06:33:41;100629.53;;;24.28
48894;BMP280;34710;35.798;139.446;2023-02-23T06:36:10;100628.34;;;24.46
48894;BMP280;34710;35.798;139.446;2023-02-23T06:38:40;100630.00;;;24.03
48894;BMP280;34710;35.798;139.446;2023-02-23T06:41:10;100626.20;;;24.30
48894;BMP280;34710;35.798;139.446;2023-02-23T06:43:39;100623.68;;;24.10
48894;BMP280;34710;35.798;139.446;2023-02-23T06:46:09;100623.20;;;23.95
48894;BMP280;34710;35.798;139.446;2023-02-23T06:48:38;100624.99;;;24.42
48894;BMP280;34710;35.798;139.446;2023-02-23T06:51:08;100625.06;;;24.28
48894;BMP280;34710;35.798;139.446;2023-02-23T06:53:37;100626.36;;;24.26
48894;BMP280;34710;35.798;139.446;2023-02-23T06:56:07;100628.02;;;24.22
48894;BMP280;34710;35.798;139.446;2023-02-23T06:58:36;100632.78;;;23.65
48894;BMP280;34710;35.798;139.446;2023-02-23T07:01:05;100632.96;;;23.88
48894;BMP280;34710;35.798;139.446;2023-02-23T07:03:35;100637.07;;;23.87
48894;BMP280;34710;35.798;139.446;2023-02-23T07:06:04;100634.66;;;23.28
48894;BMP280;34710;35.798;139.446;2023-02-23T07:08:33;100643.02;;;23.25
48894;BMP280;34710;35.798;139.446;2023-02-23T07:11:07;100643.66;;;23.12
48894;BMP280;34710;35.798;139.446;2023-02-23T07:13:37;100648.10;;;22.94
48894;BMP280;34710;35.798;139.446;2023-02-23T07:16:07;100648.85;;;23.30
48894;BMP280;34710;35.798;139.446;2023-02-23T07:18:37;100649.67;;;23.34
48894;BMP280;34710;35.798;139.446;2023-02-23T07:21:06;100653.85;;;23.29
48894;BMP280;34710;35.798;139.446;2023-02-23T07:23:35;100656.72;;;22.65
48894;BMP280;34710;35.798;139.446;2023-02-23T07:26:04;100660.81;;;22.69
48894;BMP280;34710;35.798;139.446;2023-02-23T07:28:34;100662.71;;;22.22
48894;BMP280;34710;35.798;139.446;2023-02-23T07:31:03;100663.32;;;22.17
48894;BMP280;34710;35.798;139.446;2023-02-23T07:33:32;100662.82;;;22.19
48894;BMP280;34710;35.798;139.446;2023-02-23T07:36:02;100660.45;;;21.71
48894;BMP280;34710;35.798;139.446;2023-02-23T07:38:31;100661.69;;;21.40
48894;BMP280;34710;35.798;139.446;2023-02-23T07:41:01;100661.51;;;21.02
48894;BMP280;34710;35.798;139.446;2023-02-23T07:43:30;100655.85;;;20.70
48894;BMP280;34710;35.798;139.446;2023-02-23T07:46:00;100655.89;;;20.58
48894;BMP280;34710;35.798;139.446;2023-02-23T07:48:30;100658.32;;;20.39
48894;BMP280;34710;35.798;139.446;2023-02-23T07:50:59;100662.16;;;20.59
48894;BMP280;34710;35.798;139.446;2023-02-23T07:53:29;100666.52;;;20.28
48894;BMP280;34710;35.798;139.446;2023-02-23T07:55:59;100663.79;;;20.23
48894;BMP280;34710;35.798;139.446;2023-02-23T07:58:28;100672.55;;;19.99
48894;BMP280;34710;35.798;139.446;2023-02-23T08:00:57;100674.30;;;19.68
48894;BMP280;34710;35.798;139.446;2023-02-23T08:03:27;100674.15;;;19.12
48894;BMP280;34710;35.798;139.446;2023-02-23T08:05:56;100672.55;;;19.22
48894;BMP280;34710;35.798;139.446;2023-02-23T08:08:27;100676.52;;;19.27
48894;BMP280;34710;35.798;139.446;2023-02-23T08:11:01;100679.33;;;18.87
48894;BMP280;34710;35.798;139.446;2023-02-23T08:13:31;100695.37;;;18.95
48894;BMP280;34710;35.798;139.446;2023-02-23T08:16:00;100702.72;;;18.50
48894;BMP280;34710;35.798;139.446;2023-02-23T08:18:30;100700.39;;;18.33
48894;BMP280;34710;35.798;139.446;2023-02-23T08:21:00;100696.72;;;18.18
48894;BMP280;34710;35.798;139.446;2023-02-23T08:23:30;100697.08;;;18.08
48894;BMP280;34710;35.798;139.446;2023-02-23T08:25:59;100704.46;;;17.93
48894;BMP280;34710;35.798;139.446;2023-02-23T08:28:30;100705.84;;;17.87
48894;BMP280;34710;35.798;139.446;2023-02-23T08:30:59;100701.98;;;17.78
48894;BMP280;34710;35.798;139.446;2023-02-23T08:33:29;100708.16;;;18.20
48894;BMP280;34710;35.798;139.446;2023-02-23T08:35:59;100718.30;;;17.59
48894;BMP280;34710;35.798;139.446;2023-02-23T08:38:29;100721.30;;;17.57
48894;BMP280;34710;35.798;139.446;2023-02-23T08:41:00;100726.27;;;17.14
48894;BMP280;34710;35.798;139.446;2023-02-23T08:43:30;100727.19;;;17.60
48894;BMP280;34710;35.798;139.446;2023-02-23T08:46:00;100732.84;;;17.48
48894;BMP280;34710;35.798;139.446;2023-02-23T08:48:29;100738.02;;;17.13
48894;BMP280;34710;35.798;139.446;2023-02-23T08:50:59;100739.74;;;17.29
48894;BMP280;34710;35.798;139.446;2023-02-23T08:53:29;100745.46;;;17.19
48894;BMP280;34710;35.798;139.446;2023-02-23T08:55:59;100749.31;;;17.10
48894;BMP280;34710;35.798;139.446;2023-02-23T08:58:29;100744.76;;;17.03
48894;BMP280;34710;35.798;139.446;2023-02-23T09:00:58;100749.65;;;17.05
48894;BMP280;34710;35.798;139.446;2023-02-23T09:03:28;100751.37;;;17.15
48894;BMP280;34710;35.798;139.446;2023-02-23T09:06:04;100756.22;;;16.80
48894;BMP280;34710;35.798;139.446;2023-02-23T09:08:33;100764.03;;;16.70
48894;BMP280;34710;35.798;139.446;2023-02-23T09:11:03;100770.05;;;16.61
48894;BMP280;34710;35.798;139.446;2023-02-23T09:13:32;100768.96;;;16.51
48894;BMP280;34710;35.798;139.446;2023-02-23T09:16:02;100768.18;;;16.64
48894;BMP280;34710;35.798;139.446;2023-02-23T09:18:31;100769.35;;;16.53
48894;BMP280;34710;35.798;139.446;2023-02-23T09:21:03;100770.89;;;16.44
48894;BMP280;34710;35.798;139.446;2023-02-23T09:23:33;100775.89;;;16.66
48894;BMP280;34710;35.798;139.446;2023-02-23T09:26:04;100777.95;;;16.30
48894;BMP280;34710;35.798;139.446;2023-02-23T09:28:36;100783.96;;;16.17
48894;BMP280;34710;35.798;139.446;2023-02-23T09:31:08;100790.73;;;16.30
48894;BMP280;34710;35.798;139.446;2023-02-23T09:33:38;100794.76;;;15.93
48894;BMP280;34710;35.798;139.446;2023-02-23T09:36:09;100795.57;;;15.83
48894;BMP280;34710;35.798;139.446;2023-02-23T09:38:38;100793.28;;;16.02
48894;BMP280;34710;35.798;139.446;2023-02-23T09:41:26;100797.64;;;15.91
48894;BMP280;34710;35.798;139.446;2023-02-23T09:44:03;100796.94;;;15.77
48894;BMP280;34710;35.798;139.446;2023-02-23T09:46:40;100792.20;;;15.69
48894;BMP280;34710;35.798;139.446;2023-02-23T09:49:17;100791.06;;;15.12
48894;BMP280;34710;35.798;139.446;2023-02-23T18:34:36;100791.29;;;10.49
